sensor_id;sensor_type;location;lat;lon;timestamp;P1;durP1;ratioP1;P2;durP2;ratioP2
2462;SDS011;1243;54.298;10.172;2022-10-26T00:02:14;17.87;;;11.37;;
2462;SDS011;1243;54.298;10.172;2022-10-26T00:04:40;13.57;;;9.77;;
2462;SDS011;1243;54.298;10.172;2022-10-26T00:07:06;14.33;;;10.20;;
2462;SDS011;1243;54.298;10.172;2022-10-26T00:09:32;17.37;;;10.00;;
2462;SDS011;1243;54.298;10.172;2022-10-26T00:11:57;11.67;;;10.30;;
2462;SDS011;1243;54.298;10.172;2022-10-26T00:14:23;17.30;;;11.07;;
2462;SDS011;1243;54.298;10.172;2022-10-26T00:16:49;13.83;;;9.73;;
2462;SDS011;1243;54.298;10.172;2022-10-26T00:19:14;14.17;;;10.00;;
2462;SDS011;1243;54.298;10.172;2022-10-26T00:21:40;15.20;;;12.20;;
2462;SDS011;1243;54.298;10.172;2022-10-26T00:24:06;25.27;;;10.83;;
2462;SDS011;1243;54.298;10.172;2022-10-26T00:26:31;21.07;;;11.03;;
2462;SDS011;1243;54.298;10.172;2022-10-26T00:28:57;15.20;;;10.70;;
2462;SDS011;1243;54.298;10.172;2022-10-26T00:31:23;15.97;;;10.00;;
2462;SDS011;1243;54.298;10.172;2022-10-26T00:33:52;19.33;;;10.20;;
2462;SDS011;1243;54.298;10.172;2022-10-26T00:36:19;14.80;;;10.10;;
2462;SDS011;1243;54.298;10.172;2022-10-26T00:38:49;13.23;;;10.80;;
2462;SDS011;1243;54.298;10.172;2022-10-26T00:41:22;17.70;;;9.67;;
2462;SDS011;1243;54.298;10.172;2022-10-26T00:43:50;20.70;;;11.00;;
2462;SDS011;1243;54.298;10.172;2022-10-26T00:48:52;14.40;;;10.30;;
2462;SDS011;1243;54.298;10.172;2022-10-26T00:51:28;18.13;;;11.50;;
2462;SDS011;1243;54.298;10.172;2022-10-26T00:54:02;17.93;;;10.90;;
2462;SDS011;1243;54.298;10.172;2022-10-26T00:56:31;13.57;;;8.93;;
2462;SDS011;1243;54.298;10.172;2022-10-26T00:58:59;13.70;;;10.43;;
2462;SDS011;1243;54.298;10.172;2022-10-26T01:01:29;13.97;;;9.60;;
2462;SDS011;1243;54.298;10.172;2022-10-26T01:03:56;11.87;;;9.40;;
2462;SDS011;1243;54.298;10.172;2022-10-26T01:06:22;16.77;;;11.90;;
2462;SDS011;1243;54.298;10.172;2022-10-26T01:08:48;15.53;;;10.40;;
2462;SDS011;1243;54.298;10.172;2022-10-26T01:11:14;15.77;;;10.53;;
2462;SDS011;1243;54.298;10.172;2022-10-26T01:13:40;14.47;;;10.43;;
2462;SDS011;1243;54.298;10.172;2022-10-26T01:21:52;30.63;;;11.97;;
2462;SDS011;1243;54.298;10.172;2022-10-26T01:24:52;16.00;;;10.27;;
2462;SDS011;1243;54.298;10.172;2022-10-26T01:30:27;13.17;;;9.93;;
2462;SDS011;1243;54.298;10.172;2022-10-26T01:41:22;22.83;;;11.23;;
2462;SDS011;1243;54.298;10.172;2022-10-26T01:44:03;16.87;;;10.33;;
2462;SDS011;1243;54.298;10.172;2022-10-26T01:46:41;16.33;;;10.80;;
2462;SDS011;1243;54.298;10.172;2022-10-26T01:49:10;29.40;;;10.57;;
2462;SDS011;1243;54.298;10.172;2022-10-26T01:51:39;16.73;;;10.10;;
2462;SDS011;1243;54.298;10.172;2022-10-26T01:54:07;13.20;;;9.80;;
2462;SDS011;1243;54.298;10.172;2022-10-26T01:56:40;16.57;;;9.80;;
2462;SDS011;1243;54.298;10.172;2022-10-26T02:01:52;16.23;;;10.80;;
2462;SDS011;1243;54.298;10.172;2022-10-26T02:21:34;23.80;;;11.13;;
2462;SDS011;1243;54.298;10.172;2022-10-26T02:24:03;19.90;;;10.87;;
2462;SDS011;1243;54.298;10.172;2022-10-26T02:26:31;19.17;;;10.27;;
2462;SDS011;1243;54.298;10.172;2022-10-26T02:29:00;16.87;;;12.73;;
2462;SDS011;1243;54.298;10.172;2022-10-26T02:31:28;13.37;;;10.10;;
2462;SDS011;1243;54.298;10.172;2022-10-26T02:33:56;20.10;;;11.17;;
2462;SDS011;1243;54.298;10.172;2022-10-26T02:36:27;21.53;;;12.23;;
2462;SDS011;1243;54.298;10.172;2022-10-26T02:38:56;18.27;;;10.50;;
2462;SDS011;1243;54.298;10.172;2022-10-26T02:41:24;15.03;;;9.90;;
2462;SDS011;1243;54.298;10.172;2022-10-26T02:43:59;17.43;;;11.50;;
2462;SDS011;1243;54.298;10.172;2022-10-26T02:46:32;16.63;;;11.43;;
2462;SDS011;1243;54.298;10.172;2022-10-26T02:48:59;17.83;;;11.50;;
2462;SDS011;1243;54.298;10.172;2022-10-26T02:51:29;15.40;;;11.60;;
2462;SDS011;1243;54.298;10.172;2022-10-26T02:54:24;18.67;;;11.57;;
2462;SDS011;1243;54.298;10.172;2022-10-26T02:56:52;18.80;;;12.07;;
2462;SDS011;1243;54.298;10.172;2022-10-26T02:59:25;18.00;;;10.60;;
2462;SDS011;1243;54.298;10.172;2022-10-26T03:01:54;22.63;;;11.47;;
2462;SDS011;1243;54.298;10.172;2022-10-26T03:04:26;18.40;;;11.70;;
2462;SDS011;1243;54.298;10.172;2022-10-26T03:06:56;23.03;;;11.53;;
2462;SDS011;1243;54.298;10.172;2022-10-26T03:09:22;15.13;;;11.03;;
2462;SDS011;1243;54.298;10.172;2022-10-26T03:11:48;19.00;;;12.07;;
2462;SDS011;1243;54.298;10.172;2022-10-26T03:14:14;20.80;;;11.50;;
2462;SDS011;1243;54.298;10.172;2022-10-26T03:16:39;17.57;;;11.43;;
2462;SDS011;1243;54.298;10.172;2022-10-26T03:19:05;19.10;;;11.27;;
2462;SDS011;1243;54.298;10.172;2022-10-26T03:21:31;19.07;;;11.07;;
2462;SDS011;1243;54.298;10.172;2022-10-26T03:23:56;22.70;;;12.33;;
2462;SDS011;1243;54.298;10.172;2022-10-26T03:26:22;17.17;;;11.73;;
2462;SDS011;1243;54.298;10.172;2022-10-26T03:28:48;17.80;;;10.80;;
2462;SDS011;1243;54.298;10.172;2022-10-26T03:31:13;17.37;;;11.50;;
2462;SDS011;1243;54.298;10.172;2022-10-26T03:33:39;18.73;;;11.40;;
2462;SDS011;1243;54.298;10.172;2022-10-26T03:36:05;15.10;;;10.63;;
2462;SDS011;1243;54.298;10.172;2022-10-26T03:38:31;16.53;;;11.37;;
2462;SDS011;1243;54.298;10.172;2022-10-26T03:40:56;17.53;;;11.00;;
2462;SDS011;1243;54.298;10.172;2022-10-26T03:43:22;17.93;;;11.43;;
2462;SDS011;1243;54.298;10.172;2022-10-26T03:45:48;16.60;;;10.40;;
2462;SDS011;1243;54.298;10.172;2022-10-26T03:48:13;15.80;;;11.70;;
2462;SDS011;1243;54.298;10.172;2022-10-26T03:50:39;15.40;;;10.93;;
2462;SDS011;1243;54.298;10.172;2022-10-26T03:53:05;21.83;;;11.70;;
2462;SDS011;1243;54.298;10.172;2022-10-26T03:55:31;19.20;;;10.97;;
2462;SDS011;1243;54.298;10.172;2022-10-26T03:57:56;16.80;;;11.40;;
2462;SDS011;1243;54.298;10.172;2022-10-26T04:00:22;19.00;;;11.17;;
2462;SDS011;1243;54.298;10.172;2022-10-26T04:02:57;17.70;;;10.80;;
2462;SDS011;1243;54.298;10.172;2022-10-26T04:05:24;15.70;;;10.60;;
2462;SDS011;1243;54.298;10.172;2022-10-26T04:07:55;25.50;;;11.67;;
2462;SDS011;1243;54.298;10.172;2022-10-26T04:10:23;15.70;;;10.10;;
2462;SDS011;1243;54.298;10.172;2022-10-26T04:12:49;17.80;;;11.50;;
2462;SDS011;1243;54.298;10.172;2022-10-26T04:15:16;20.20;;;11.90;;
2462;SDS011;1243;54.298;10.172;2022-10-26T04:17:42;14.87;;;9.50;;
2462;SDS011;1243;54.298;10.172;2022-10-26T04:20:08;20.00;;;11.90;;
2462;SDS011;1243;54.298;10.172;2022-10-26T04:22:34;15.80;;;11.17;;
2462;SDS011;1243;54.298;10.172;2022-10-26T04:25:00;15.63;;;11.67;;
2462;SDS011;1243;54.298;10.172;2022-10-26T04:27:27;26.63;;;13.60;;
2462;SDS011;1243;54.298;10.172;2022-10-26T04:29:53;15.57;;;12.60;;
2462;SDS011;1243;54.298;10.172;2022-10-26T04:32:18;18.40;;;13.30;;
2462;SDS011;1243;54.298;10.172;2022-10-26T04:34:44;24.73;;;12.93;;
2462;SDS011;1243;54.298;10.172;2022-10-26T04:37:09;20.10;;;11.37;;
2462;SDS011;1243;54.298;10.172;2022-10-26T04:39:35;21.90;;;12.03;;
2462;SDS011;1243;54.298;10.172;2022-10-26T04:42:01;19.57;;;12.57;;
2462;SDS011;1243;54.298;10.172;2022-10-26T04:44:26;22.93;;;11.90;;
2462;SDS011;1243;54.298;10.172;2022-10-26T04:46:52;18.97;;;13.77;;
2462;SDS011;1243;54.298;10.172;2022-10-26T04:49:18;20.13;;;12.43;;
2462;SDS011;1243;54.298;10.172;2022-10-26T04:51:43;17.70;;;11.50;;
2462;SDS011;1243;54.298;10.172;2022-10-26T04:54:09;18.00;;;12.20;;
2462;SDS011;1243;54.298;10.172;2022-10-26T04:56:35;22.10;;;11.80;;
2462;SDS011;1243;54.298;10.172;2022-10-26T04:59:00;20.63;;;12.83;;
2462;SDS011;1243;54.298;10.172;2022-10-26T05:01:26;15.20;;;10.90;;
2462;SDS011;1243;54.298;10.172;2022-10-26T05:03:52;16.27;;;10.90;;
2462;SDS011;1243;54.298;10.172;2022-10-26T05:06:19;16.53;;;11.70;;
2462;SDS011;1243;54.298;10.172;2022-10-26T05:08:45;19.13;;;11.00;;
2462;SDS011;1243;54.298;10.172;2022-10-26T05:11:11;21.67;;;11.60;;
2462;SDS011;1243;54.298;10.172;2022-10-26T05:13:36;15.10;;;11.03;;
2462;SDS011;1243;54.298;10.172;2022-10-26T05:16:02;16.67;;;10.60;;
2462;SDS011;1243;54.298;10.172;2022-10-26T05:18:28;22.63;;;12.40;;
2462;SDS011;1243;54.298;10.172;2022-10-26T05:20:54;16.93;;;12.20;;
2462;SDS011;1243;54.298;10.172;2022-10-26T05:23:19;16.27;;;10.50;;
2462;SDS011;1243;54.298;10.172;2022-10-26T05:25:45;17.23;;;12.47;;
2462;SDS011;1243;54.298;10.172;2022-10-26T05:28:12;15.50;;;10.67;;
2462;SDS011;1243;54.298;10.172;2022-10-26T05:30:42;18.50;;;12.27;;
2462;SDS011;1243;54.298;10.172;2022-10-26T05:33:10;28.60;;;11.40;;
2462;SDS011;1243;54.298;10.172;2022-10-26T05:35:36;19.67;;;10.87;;
2462;SDS011;1243;54.298;10.172;2022-10-26T05:38:08;17.83;;;9.80;;
2462;SDS011;1243;54.298;10.172;2022-10-26T05:40:36;13.93;;;10.57;;
2462;SDS011;1243;54.298;10.172;2022-10-26T05:43:02;19.10;;;10.90;;
2462;SDS011;1243;54.298;10.172;2022-10-26T05:45:28;17.80;;;11.33;;
2462;SDS011;1243;54.298;10.172;2022-10-26T05:47:54;16.03;;;10.60;;
2462;SDS011;1243;54.298;10.172;2022-10-26T05:50:19;19.40;;;12.47;;
2462;SDS011;1243;54.298;10.172;2022-10-26T05:52:46;17.50;;;10.37;;
2462;SDS011;1243;54.298;10.172;2022-10-26T05:55:13;16.97;;;11.20;;
2462;SDS011;1243;54.298;10.172;2022-10-26T05:57:40;17.73;;;10.77;;
2462;SDS011;1243;54.298;10.172;2022-10-26T06:00:14;15.97;;;11.30;;
2462;SDS011;1243;54.298;10.172;2022-10-26T06:02:56;18.43;;;10.43;;
2462;SDS011;1243;54.298;10.172;2022-10-26T06:05:26;16.83;;;9.80;;
2462;SDS011;1243;54.298;10.172;2022-10-26T06:07:53;15.83;;;9.80;;
2462;SDS011;1243;54.298;10.172;2022-10-26T06:10:19;13.47;;;10.83;;
2462;SDS011;1243;54.298;10.172;2022-10-26T06:12:45;17.30;;;11.63;;
2462;SDS011;1243;54.298;10.172;2022-10-26T06:15:12;14.40;;;10.07;;
2462;SDS011;1243;54.298;10.172;2022-10-26T06:22:57;14.80;;;10.60;;
2462;SDS011;1243;54.298;10.172;2022-10-26T06:31:14;14.27;;;9.63;;
2462;SDS011;1243;54.298;10.172;2022-10-26T06:33:40;13.60;;;9.60;;
2462;SDS011;1243;54.298;10.172;2022-10-26T06:36:22;13.80;;;10.03;;
2462;SDS011;1243;54.298;10.172;2022-10-26T06:38:49;16.63;;;10.63;;
2462;SDS011;1243;54.298;10.172;2022-10-26T06:41:25;16.33;;;12.20;;
2462;SDS011;1243;54.298;10.172;2022-10-26T06:43:51;18.13;;;11.40;;
2462;SDS011;1243;54.298;10.172;2022-10-26T06:51:40;13.30;;;10.47;;
2462;SDS011;1243;54.298;10.172;2022-10-26T06:54:28;16.63;;;11.17;;
2462;SDS011;1243;54.298;10.172;2022-10-26T06:57:16;18.00;;;12.00;;
2462;SDS011;1243;54.298;10.172;2022-10-26T06:59:50;16.87;;;11.20;;
2462;SDS011;1243;54.298;10.172;2022-10-26T07:02:19;15.33;;;11.17;;
2462;SDS011;1243;54.298;10.172;2022-10-26T07:04:45;15.57;;;11.07;;
2462;SDS011;1243;54.298;10.172;2022-10-26T07:07:13;18.53;;;11.80;;
2462;SDS011;1243;54.298;10.172;2022-10-26T07:09:43;14.50;;;11.67;;
2462;SDS011;1243;54.298;10.172;2022-10-26T07:12:09;16.70;;;11.00;;
2462;SDS011;1243;54.298;10.172;2022-10-26T07:14:35;24.87;;;12.67;;
2462;SDS011;1243;54.298;10.172;2022-10-26T07:17:00;15.10;;;11.27;;
2462;SDS011;1243;54.298;10.172;2022-10-26T07:19:26;20.27;;;12.73;;
2462;SDS011;1243;54.298;10.172;2022-10-26T07:21:55;20.40;;;11.77;;
2462;SDS011;1243;54.298;10.172;2022-10-26T07:24:23;15.00;;;10.20;;
2462;SDS011;1243;54.298;10.172;2022-10-26T07:26:49;20.63;;;11.30;;
2462;SDS011;1243;54.298;10.172;2022-10-26T07:29:15;21.27;;;11.50;;
2462;SDS011;1243;54.298;10.172;2022-10-26T07:31:42;17.67;;;11.43;;
2462;SDS011;1243;54.298;10.172;2022-10-26T07:34:08;20.67;;;13.80;;
2462;SDS011;1243;54.298;10.172;2022-10-26T07:36:34;19.47;;;12.03;;
2462;SDS011;1243;54.298;10.172;2022-10-26T07:39:03;22.07;;;12.37;;
2462;SDS011;1243;54.298;10.172;2022-10-26T07:41:29;19.03;;;12.30;;
2462;SDS011;1243;54.298;10.172;2022-10-26T07:43:55;19.70;;;12.80;;
2462;SDS011;1243;54.298;10.172;2022-10-26T07:46:21;19.10;;;13.17;;
2462;SDS011;1243;54.298;10.172;2022-10-26T07:48:47;16.50;;;11.83;;
2462;SDS011;1243;54.298;10.172;2022-10-26T07:51:12;18.97;;;13.40;;
2462;SDS011;1243;54.298;10.172;2022-10-26T07:53:38;18.27;;;11.77;;
2462;SDS011;1243;54.298;10.172;2022-10-26T07:56:04;22.00;;;12.63;;
2462;SDS011;1243;54.298;10.172;2022-10-26T07:58:30;19.00;;;11.53;;
2462;SDS011;1243;54.298;10.172;2022-10-26T08:00:56;17.90;;;12.63;;
2462;SDS011;1243;54.298;10.172;2022-10-26T08:03:22;22.13;;;13.13;;
2462;SDS011;1243;54.298;10.172;2022-10-26T08:05:48;22.10;;;11.27;;
2462;SDS011;1243;54.298;10.172;2022-10-26T08:08:19;20.37;;;12.57;;
2462;SDS011;1243;54.298;10.172;2022-10-26T08:10:46;18.20;;;11.10;;
2462;SDS011;1243;54.298;10.172;2022-10-26T08:13:12;17.43;;;12.30;;
2462;SDS011;1243;54.298;10.172;2022-10-26T08:15:38;22.53;;;11.20;;
2462;SDS011;1243;54.298;10.172;2022-10-26T08:18:04;19.33;;;11.80;;
2462;SDS011;1243;54.298;10.172;2022-10-26T08:20:30;23.17;;;12.60;;
2462;SDS011;1243;54.298;10.172;2022-10-26T08:22:56;17.87;;;12.87;;
2462;SDS011;1243;54.298;10.172;2022-10-26T08:25:22;21.47;;;12.93;;
2462;SDS011;1243;54.298;10.172;2022-10-26T08:27:48;15.57;;;11.43;;
2462;SDS011;1243;54.298;10.172;2022-10-26T08:30:14;17.60;;;11.77;;
2462;SDS011;1243;54.298;10.172;2022-10-26T08:32:40;25.10;;;13.00;;
2462;SDS011;1243;54.298;10.172;2022-10-26T08:35:06;19.73;;;12.10;;
2462;SDS011;1243;54.298;10.172;2022-10-26T08:37:33;27.93;;;11.97;;
2462;SDS011;1243;54.298;10.172;2022-10-26T08:39:59;21.43;;;11.37;;
2462;SDS011;1243;54.298;10.172;2022-10-26T08:42:43;19.63;;;11.07;;
2462;SDS011;1243;54.298;10.172;2022-10-26T08:45:21;23.27;;;11.67;;
2462;SDS011;1243;54.298;10.172;2022-10-26T08:48:03;21.87;;;12.33;;
2462;SDS011;1243;54.298;10.172;2022-10-26T08:50:34;16.67;;;11.20;;
2462;SDS011;1243;54.298;10.172;2022-10-26T08:53:53;23.40;;;13.80;;
2462;SDS011;1243;54.298;10.172;2022-10-26T08:56:07;15.27;;;10.70;;
2462;SDS011;1243;54.298;10.172;2022-10-26T08:58:40;14.43;;;10.50;;
2462;SDS011;1243;54.298;10.172;2022-10-26T09:01:14;19.10;;;9.90;;
2462;SDS011;1243;54.298;10.172;2022-10-26T09:03:40;17.30;;;11.97;;
2462;SDS011;1243;54.298;10.172;2022-10-26T09:09:22;18.53;;;11.40;;
2462;SDS011;1243;54.298;10.172;2022-10-26T09:12:18;15.20;;;10.40;;
2462;SDS011;1243;54.298;10.172;2022-10-26T09:20:11;11.50;;;9.10;;
2462;SDS011;1243;54.298;10.172;2022-10-26T09:25:56;16.97;;;8.60;;
2462;SDS011;1243;54.298;10.172;2022-10-26T09:28:24;14.53;;;8.60;;
2462;SDS011;1243;54.298;10.172;2022-10-26T09:30:52;13.10;;;9.20;;
2462;SDS011;1243;54.298;10.172;2022-10-26T09:33:23;12.77;;;8.80;;
2462;SDS011;1243;54.298;10.172;2022-10-26T09:35:50;11.80;;;9.07;;
2462;SDS011;1243;54.298;10.172;2022-10-26T09:38:28;14.40;;;8.33;;
2462;SDS011;1243;54.298;10.172;2022-10-26T09:41:20;18.13;;;10.07;;
2462;SDS011;1243;54.298;10.172;2022-10-26T09:43:53;13.93;;;8.50;;
2462;SDS011;1243;54.298;10.172;2022-10-26T09:46:30;17.43;;;9.87;;
2462;SDS011;1243;54.298;10.172;2022-10-26T09:49:00;15.50;;;9.27;;
2462;SDS011;1243;54.298;10.172;2022-10-26T09:51:36;13.77;;;8.90;;
2462;SDS011;1243;54.298;10.172;2022-10-26T09:54:16;8.30;;;7.40;;
2462;SDS011;1243;54.298;10.172;2022-10-26T09:56:43;13.03;;;8.03;;
2462;SDS011;1243;54.298;10.172;2022-10-26T09:59:14;11.00;;;7.47;;
2462;SDS011;1243;54.298;10.172;2022-10-26T10:01:42;9.60;;;6.23;;
2462;SDS011;1243;54.298;10.172;2022-10-26T10:06:47;14.33;;;7.53;;
2462;SDS011;1243;54.298;10.172;2022-10-26T10:09:20;13.33;;;7.00;;
2462;SDS011;1243;54.298;10.172;2022-10-26T10:14:19;7.87;;;6.47;;
2462;SDS011;1243;54.298;10.172;2022-10-26T10:19:23;10.00;;;5.67;;
2462;SDS011;1243;54.298;10.172;2022-10-26T10:21:55;10.43;;;7.03;;
2462;SDS011;1243;54.298;10.172;2022-10-26T10:24:24;7.53;;;5.40;;
2462;SDS011;1243;54.298;10.172;2022-10-26T10:26:55;8.67;;;4.60;;
2462;SDS011;1243;54.298;10.172;2022-10-26T10:34:45;8.23;;;5.37;;
2462;SDS011;1243;54.298;10.172;2022-10-26T10:37:54;10.87;;;4.93;;
2462;SDS011;1243;54.298;10.172;2022-10-26T10:40:06;6.67;;;5.30;;
2462;SDS011;1243;54.298;10.172;2022-10-26T10:42:43;7.87;;;5.00;;
2462;SDS011;1243;54.298;10.172;2022-10-26T10:45:18;5.93;;;4.67;;
2462;SDS011;1243;54.298;10.172;2022-10-26T10:50:37;8.43;;;4.30;;
2462;SDS011;1243;54.298;10.172;2022-10-26T10:53:18;5.00;;;4.10;;
2462;SDS011;1243;54.298;10.172;2022-10-26T11:07:24;8.30;;;4.30;;
2462;SDS011;1243;54.298;10.172;2022-10-26T11:09:51;5.00;;;4.60;;
2462;SDS011;1243;54.298;10.172;2022-10-26T11:12:23;6.10;;;4.70;;
2462;SDS011;1243;54.298;10.172;2022-10-26T11:14:58;7.90;;;4.07;;
2462;SDS011;1243;54.298;10.172;2022-10-26T11:17:31;3.73;;;3.33;;
2462;SDS011;1243;54.298;10.172;2022-10-26T11:20:14;5.37;;;4.57;;
2462;SDS011;1243;54.298;10.172;2022-10-26T11:22:55;4.23;;;3.93;;
2462;SDS011;1243;54.298;10.172;2022-10-26T11:25:30;4.07;;;3.73;;
2462;SDS011;1243;54.298;10.172;2022-10-26T11:28:05;5.63;;;3.70;;
2462;SDS011;1243;54.298;10.172;2022-10-26T11:30:40;5.20;;;4.43;;
2462;SDS011;1243;54.298;10.172;2022-10-26T11:33:24;4.50;;;3.67;;
2462;SDS011;1243;54.298;10.172;2022-10-26T11:35:56;8.70;;;4.50;;
2462;SDS011;1243;54.298;10.172;2022-10-26T11:44:04;5.50;;;3.50;;
2462;SDS011;1243;54.298;10.172;2022-10-26T11:46:51;8.30;;;3.20;;
2462;SDS011;1243;54.298;10.172;2022-10-26T11:52:20;5.60;;;3.73;;
2462;SDS011;1243;54.298;10.172;2022-10-26T11:54:53;2.93;;;2.63;;
2462;SDS011;1243;54.298;10.172;2022-10-26T11:57:26;7.33;;;3.20;;
2462;SDS011;1243;54.298;10.172;2022-10-26T11:59:54;3.93;;;2.87;;
2462;SDS011;1243;54.298;10.172;2022-10-26T12:02:29;5.33;;;3.10;;
2462;SDS011;1243;54.298;10.172;2022-10-26T12:07:42;8.33;;;3.37;;
2462;SDS011;1243;54.298;10.172;2022-10-26T12:10:34;5.37;;;2.87;;
2462;SDS011;1243;54.298;10.172;2022-10-26T12:15:55;13.40;;;4.13;;
2462;SDS011;1243;54.298;10.172;2022-10-26T12:18:47;4.13;;;2.80;;
2462;SDS011;1243;54.298;10.172;2022-10-26T12:21:18;10.00;;;3.43;;
2462;SDS011;1243;54.298;10.172;2022-10-26T12:23:54;4.20;;;3.20;;
2462;SDS011;1243;54.298;10.172;2022-10-26T12:28:47;3.70;;;3.37;;
2462;SDS011;1243;54.298;10.172;2022-10-26T12:34:06;3.10;;;2.80;;
2462;SDS011;1243;54.298;10.172;2022-10-26T12:47:02;2.87;;;2.67;;
2462;SDS011;1243;54.298;10.172;2022-10-26T12:52:52;3.87;;;2.60;;
2462;SDS011;1243;54.298;10.172;2022-10-26T13:00:13;4.80;;;3.50;;
2462;SDS011;1243;54.298;10.172;2022-10-26T13:05:28;10.47;;;3.70;;
2462;SDS011;1243;54.298;10.172;2022-10-26T13:08:04;3.03;;;2.77;;
2462;SDS011;1243;54.298;10.172;2022-10-26T13:10:33;4.53;;;3.03;;
2462;SDS011;1243;54.298;10.172;2022-10-26T13:13:01;5.17;;;2.53;;
2462;SDS011;1243;54.298;10.172;2022-10-26T13:18:19;6.33;;;3.10;;
2462;SDS011;1243;54.298;10.172;2022-10-26T13:20:57;3.63;;;2.23;;
2462;SDS011;1243;54.298;10.172;2022-10-26T13:23:25;4.37;;;2.37;;
2462;SDS011;1243;54.298;10.172;2022-10-26T13:26:03;6.43;;;2.27;;
2462;SDS011;1243;54.298;10.172;2022-10-26T13:31:09;3.83;;;2.30;;
2462;SDS011;1243;54.298;10.172;2022-10-26T13:33:42;3.10;;;2.87;;
2462;SDS011;1243;54.298;10.172;2022-10-26T13:38:59;5.00;;;2.10;;
2462;SDS011;1243;54.298;10.172;2022-10-26T13:41:33;5.37;;;2.57;;
2462;SDS011;1243;54.298;10.172;2022-10-26T13:44:02;4.17;;;3.03;;
2462;SDS011;1243;54.298;10.172;2022-10-26T13:46:31;4.50;;;3.33;;
2462;SDS011;1243;54.298;10.172;2022-10-26T13:49:04;5.77;;;3.70;;
2462;SDS011;1243;54.298;10.172;2022-10-26T13:51:42;5.37;;;3.50;;
2462;SDS011;1243;54.298;10.172;2022-10-26T13:54:31;3.73;;;3.43;;
2462;SDS011;1243;54.298;10.172;2022-10-26T13:57:37;10.20;;;3.80;;
2462;SDS011;1243;54.298;10.172;2022-10-26T14:00:07;3.87;;;2.70;;
2462;SDS011;1243;54.298;10.172;2022-10-26T14:02:40;3.40;;;2.97;;
2462;SDS011;1243;54.298;10.172;2022-10-26T14:05:08;3.70;;;3.40;;
2462;SDS011;1243;54.298;10.172;2022-10-26T14:07:44;7.57;;;3.30;;
2462;SDS011;1243;54.298;10.172;2022-10-26T14:10:23;8.80;;;3.63;;
2462;SDS011;1243;54.298;10.172;2022-10-26T14:13:01;5.07;;;3.17;;
2462;SDS011;1243;54.298;10.172;2022-10-26T14:15:37;9.13;;;2.53;;
2462;SDS011;1243;54.298;10.172;2022-10-26T14:18:20;3.80;;;2.40;;
2462;SDS011;1243;54.298;10.172;2022-10-26T14:20:51;3.80;;;2.43;;
2462;SDS011;1243;54.298;10.172;2022-10-26T14:23:25;3.47;;;2.20;;
2462;SDS011;1243;54.298;10.172;2022-10-26T14:26:17;2.10;;;1.90;;
2462;SDS011;1243;54.298;10.172;2022-10-26T14:28:46;4.20;;;2.30;;
2462;SDS011;1243;54.298;10.172;2022-10-26T14:31:21;4.13;;;2.60;;
2462;SDS011;1243;54.298;10.172;2022-10-26T14:33:55;3.43;;;2.10;;
2462;SDS011;1243;54.298;10.172;2022-10-26T14:36:24;5.00;;;3.00;;
2462;SDS011;1243;54.298;10.172;2022-10-26T14:38:57;5.60;;;2.70;;
2462;SDS011;1243;54.298;10.172;2022-10-26T14:41:29;3.07;;;2.50;;
2462;SDS011;1243;54.298;10.172;2022-10-26T14:43:58;3.47;;;2.10;;
2462;SDS011;1243;54.298;10.172;2022-10-26T14:46:31;4.03;;;2.43;;
2462;SDS011;1243;54.298;10.172;2022-10-26T14:48:59;5.40;;;2.77;;
2462;SDS011;1243;54.298;10.172;2022-10-26T14:51:33;3.20;;;2.90;;
2462;SDS011;1243;54.298;10.172;2022-10-26T14:54:00;2.40;;;2.30;;
2462;SDS011;1243;54.298;10.172;2022-10-26T14:59:08;4.70;;;2.90;;
2462;SDS011;1243;54.298;10.172;2022-10-26T15:01:46;4.23;;;2.70;;
2462;SDS011;1243;54.298;10.172;2022-10-26T15:04:30;4.10;;;3.33;;
2462;SDS011;1243;54.298;10.172;2022-10-26T15:07:22;3.53;;;2.93;;
2462;SDS011;1243;54.298;10.172;2022-10-26T15:09:48;6.60;;;2.47;;
2462;SDS011;1243;54.298;10.172;2022-10-26T15:15:07;4.33;;;2.73;;
2462;SDS011;1243;54.298;10.172;2022-10-26T15:17:48;8.83;;;3.03;;
2462;SDS011;1243;54.298;10.172;2022-10-26T15:20:23;3.40;;;2.90;;
2462;SDS011;1243;54.298;10.172;2022-10-26T15:23:00;4.93;;;2.40;;
2462;SDS011;1243;54.298;10.172;2022-10-26T15:25:33;9.00;;;2.83;;
2462;SDS011;1243;54.298;10.172;2022-10-26T15:36:20;5.57;;;2.57;;
2462;SDS011;1243;54.298;10.172;2022-10-26T15:38:48;2.30;;;2.10;;
2462;SDS011;1243;54.298;10.172;2022-10-26T15:43:54;2.40;;;2.23;;
2462;SDS011;1243;54.298;10.172;2022-10-26T15:46:22;3.23;;;2.57;;
2462;SDS011;1243;54.298;10.172;2022-10-26T15:48:56;4.83;;;3.10;;
2462;SDS011;1243;54.298;10.172;2022-10-26T15:51:23;4.23;;;3.20;;
2462;SDS011;1243;54.298;10.172;2022-10-26T15:53:49;7.13;;;2.83;;
2462;SDS011;1243;54.298;10.172;2022-10-26T15:56:16;3.83;;;2.73;;
2462;SDS011;1243;54.298;10.172;2022-10-26T15:58:43;3.60;;;2.87;;
2462;SDS011;1243;54.298;10.172;2022-10-26T16:01:17;7.27;;;3.43;;
2462;SDS011;1243;54.298;10.172;2022-10-26T16:03:45;3.53;;;3.20;;
2462;SDS011;1243;54.298;10.172;2022-10-26T16:06:13;5.60;;;3.60;;
2462;SDS011;1243;54.298;10.172;2022-10-26T16:08:41;9.03;;;2.83;;
2462;SDS011;1243;54.298;10.172;2022-10-26T16:11:16;3.00;;;2.80;;
2462;SDS011;1243;54.298;10.172;2022-10-26T16:13:42;8.90;;;4.20;;
2462;SDS011;1243;54.298;10.172;2022-10-26T16:16:11;3.70;;;3.00;;
2462;SDS011;1243;54.298;10.172;2022-10-26T16:18:38;5.43;;;3.40;;
2462;SDS011;1243;54.298;10.172;2022-10-26T16:21:04;3.60;;;3.33;;
2462;SDS011;1243;54.298;10.172;2022-10-26T16:23:30;4.13;;;3.20;;
2462;SDS011;1243;54.298;10.172;2022-10-26T16:25:55;3.50;;;3.20;;
2462;SDS011;1243;54.298;10.172;2022-10-26T16:28:21;7.60;;;3.33;;
2462;SDS011;1243;54.298;10.172;2022-10-26T16:30:47;7.40;;;3.70;;
2462;SDS011;1243;54.298;10.172;2022-10-26T16:33:13;8.27;;;3.27;;
2462;SDS011;1243;54.298;10.172;2022-10-26T16:35:39;4.70;;;3.23;;
2462;SDS011;1243;54.298;10.172;2022-10-26T16:38:04;8.90;;;3.80;;
2462;SDS011;1243;54.298;10.172;2022-10-26T16:40:30;3.97;;;3.57;;
2462;SDS011;1243;54.298;10.172;2022-10-26T16:42:56;4.53;;;3.80;;
2462;SDS011;1243;54.298;10.172;2022-10-26T16:45:22;6.93;;;3.93;;
2462;SDS011;1243;54.298;10.172;2022-10-26T16:47:47;3.30;;;2.83;;
2462;SDS011;1243;54.298;10.172;2022-10-26T16:50:13;4.80;;;3.50;;
2462;SDS011;1243;54.298;10.172;2022-10-26T16:52:39;6.03;;;4.00;;
2462;SDS011;1243;54.298;10.172;2022-10-26T16:55:06;8.17;;;4.20;;
2462;SDS011;1243;54.298;10.172;2022-10-26T16:57:33;5.90;;;3.80;;
2462;SDS011;1243;54.298;10.172;2022-10-26T17:00:00;4.30;;;3.90;;
2462;SDS011;1243;54.298;10.172;2022-10-26T17:02:26;4.37;;;3.47;;
2462;SDS011;1243;54.298;10.172;2022-10-26T17:04:52;5.17;;;4.00;;
2462;SDS011;1243;54.298;10.172;2022-10-26T17:07:17;8.83;;;6.00;;
2462;SDS011;1243;54.298;10.172;2022-10-26T17:09:43;10.30;;;5.50;;
2462;SDS011;1243;54.298;10.172;2022-10-26T17:12:09;12.37;;;5.23;;
2462;SDS011;1243;54.298;10.172;2022-10-26T17:14:35;5.40;;;4.03;;
2462;SDS011;1243;54.298;10.172;2022-10-26T17:17:01;5.90;;;4.70;;
2462;SDS011;1243;54.298;10.172;2022-10-26T17:19:27;13.23;;;4.70;;
2462;SDS011;1243;54.298;10.172;2022-10-26T17:21:53;4.67;;;3.60;;
2462;SDS011;1243;54.298;10.172;2022-10-26T17:24:19;4.33;;;4.03;;
2462;SDS011;1243;54.298;10.172;2022-10-26T17:26:45;4.93;;;3.70;;
2462;SDS011;1243;54.298;10.172;2022-10-26T17:29:13;4.33;;;4.03;;
2462;SDS011;1243;54.298;10.172;2022-10-26T17:31:39;3.60;;;3.27;;
2462;SDS011;1243;54.298;10.172;2022-10-26T17:34:05;4.50;;;3.47;;
2462;SDS011;1243;54.298;10.172;2022-10-26T17:36:31;4.60;;;3.70;;
2462;SDS011;1243;54.298;10.172;2022-10-26T17:38:56;4.47;;;3.63;;
2462;SDS011;1243;54.298;10.172;2022-10-26T17:41:22;6.47;;;4.33;;
2462;SDS011;1243;54.298;10.172;2022-10-26T17:43:49;5.37;;;3.70;;